createdAt,value
2018-12-15T00:02:24.334Z,10.03
2018-12-15T00:04:53.198Z,10.40
2018-12-15T00:07:21.967Z,9.60
2018-12-15T00:09:51.014Z,9.77
2018-12-15T00:12:19.743Z,10.10
2018-12-15T00:14:48.655Z,9.83
2018-12-15T00:17:17.770Z,9.45
2018-12-15T00:19:46.502Z,9.47
2018-12-15T00:22:15.306Z,10.20
2018-12-15T00:24:44.122Z,10.27
2018-12-15T00:27:12.714Z,8.77
2018-12-15T00:29:41.578Z,9.33
2018-12-15T00:32:10.410Z,9.03
2018-12-15T00:34:39.158Z,9.27
2018-12-15T00:37:08.010Z,8.93
2018-12-15T00:39:36.721Z,9.73
2018-12-15T00:42:05.446Z,9.90
2018-12-15T00:44:34.182Z,10.07
2018-12-15T00:47:02.938Z,9.97
2018-12-15T00:49:31.794Z,8.93
2018-12-15T00:52:00.458Z,10.07
2018-12-15T00:54:29.348Z,9.40
2018-12-15T00:56:57.966Z,9.90
2018-12-15T00:59:26.834Z,10.10
2018-12-15T01:01:56.374Z,10.63
2018-12-15T01:04:25.162Z,9.23
2018-12-15T01:06:54.298Z,9.27
2018-12-15T01:09:23.126Z,10.00
2018-12-15T01:11:51.874Z,9.70
2018-12-15T01:14:20.583Z,9.33
2018-12-15T01:16:50.502Z,8.60
2018-12-15T01:19:19.186Z,10.20
2018-12-15T01:21:48.266Z,8.87
2018-12-15T01:24:17.026Z,9.47
2018-12-15T01:26:46.139Z,9.13
2018-12-15T01:29:14.854Z,9.70
2018-12-15T01:31:43.679Z,9.53
2018-12-15T01:34:13.087Z,9.27
2018-12-15T01:36:41.806Z,9.50
2018-12-15T01:39:10.587Z,9.23
2018-12-15T01:41:39.359Z,9.07
2018-12-15T01:44:08.494Z,9.07
2018-12-15T01:46:37.302Z,8.67
2018-12-15T01:49:06.108Z,9.77
2018-12-15T01:51:35.314Z,9.47
2018-12-15T01:54:04.181Z,9.43
2018-12-15T01:56:33.002Z,9.60
2018-12-15T01:59:01.798Z,9.37
2018-12-15T02:01:30.558Z,9.73
2018-12-15T02:03:59.582Z,9.40
2018-12-15T02:06:28.399Z,9.07
2018-12-15T02:08:57.135Z,8.73
2018-12-15T02:11:25.983Z,9.33
2018-12-15T02:13:54.946Z,9.07
2018-12-15T02:16:23.710Z,9.53
2018-12-15T02:18:52.466Z,8.83
2018-12-15T02:21:21.226Z,9.83
2018-12-15T02:23:50.031Z,10.13
2018-12-15T02:26:18.786Z,9.78
2018-12-15T02:28:47.667Z,10.27
2018-12-15T02:31:16.430Z,9.60
2018-12-15T02:33:45.234Z,9.50
2018-12-15T02:36:13.998Z,9.78
2018-12-15T02:38:43.091Z,9.13
2018-12-15T02:41:11.923Z,10.27
2018-12-15T02:43:40.678Z,9.87
2018-12-15T02:46:09.676Z,9.37
2018-12-15T02:48:38.419Z,9.53
2018-12-15T02:51:07.240Z,8.80
2018-12-15T02:53:36.063Z,8.33
2018-12-15T02:56:04.883Z,9.07
2018-12-15T02:58:33.727Z,9.23
2018-12-15T03:01:02.490Z,9.43
2018-12-15T03:03:31.295Z,9.13
2018-12-15T03:06:00.091Z,9.00
2018-12-15T03:08:29.567Z,9.77
2018-12-15T03:10:58.306Z,9.00
2018-12-15T03:13:27.142Z,9.57
2018-12-15T03:15:55.910Z,8.57
2018-12-15T03:18:24.651Z,9.40
2018-12-15T03:21:01.595Z,9.53
2018-12-15T03:23:30.373Z,8.70
2018-12-15T03:25:59.231Z,9.70
2018-12-15T03:28:28.129Z,9.93
2018-12-15T03:30:56.928Z,9.67
2018-12-15T03:33:25.754Z,9.53
2018-12-15T03:35:54.797Z,9.90
2018-12-15T03:38:23.540Z,8.90
2018-12-15T03:40:52.466Z,9.33
2018-12-15T03:43:21.246Z,9.60
2018-12-15T03:45:50.057Z,9.93
2018-12-15T03:48:18.810Z,9.60
2018-12-15T03:50:47.602Z,8.80
2018-12-15T03:53:16.402Z,9.48
2018-12-15T03:55:45.487Z,8.37
2018-12-15T03:58:14.597Z,8.83
2018-12-15T04:00:43.340Z,9.17
2018-12-15T04:03:12.089Z,9.27
2018-12-15T04:05:40.954Z,9.23
2018-12-15T04:08:09.726Z,9.60
2018-12-15T04:10:38.486Z,8.97
2018-12-15T04:13:07.285Z,8.70
2018-12-15T04:15:36.050Z,9.83
2018-12-15T04:18:05.118Z,8.67
2018-12-15T04:20:33.971Z,9.97
2018-12-15T04:23:03.007Z,8.43
2018-12-15T04:25:32.102Z,8.57
2018-12-15T04:28:00.867Z,8.73
2018-12-15T04:30:29.742Z,8.83
2018-12-15T04:32:58.462Z,8.57
2018-12-15T04:35:27.243Z,8.77
2018-12-15T04:37:56.018Z,8.17
2018-12-15T04:40:24.862Z,8.47
2018-12-15T04:42:53.734Z,9.13
2018-12-15T04:45:22.746Z,8.13
2018-12-15T04:47:51.475Z,8.50
2018-12-15T04:50:20.193Z,7.33
2018-12-15T04:52:49.953Z,7.97
2018-12-15T04:55:18.770Z,8.08
2018-12-15T04:57:47.757Z,8.73
2018-12-15T05:00:16.485Z,7.73
2018-12-15T05:02:45.789Z,11.57
2018-12-15T05:05:14.590Z,8.23
2018-12-15T05:07:43.665Z,8.23
2018-12-15T05:10:12.390Z,8.60
2018-12-15T05:12:41.166Z,7.67
2018-12-15T05:15:09.912Z,8.23
2018-12-15T05:17:38.602Z,8.27
2018-12-15T05:20:07.538Z,7.93
2018-12-15T05:22:36.117Z,8.13
2018-12-15T05:25:05.653Z,9.90
2018-12-15T05:27:34.733Z,10.43
2018-12-15T05:30:03.575Z,9.40
2018-12-15T05:32:32.698Z,10.03
2018-12-15T05:35:01.802Z,9.13
2018-12-15T05:37:30.493Z,8.97
2018-12-15T05:39:59.161Z,8.73
2018-12-15T05:42:28.310Z,9.70
2018-12-15T05:44:57.045Z,10.27
2018-12-15T05:47:25.798Z,12.60
2018-12-15T05:49:54.550Z,12.40
2018-12-15T05:52:23.262Z,11.40
2018-12-15T05:54:51.930Z,10.47
2018-12-15T05:57:20.689Z,7.97
2018-12-15T05:59:50.215Z,7.57
2018-12-15T06:02:19.002Z,8.27
2018-12-15T06:04:47.750Z,8.77
2018-12-15T06:07:16.437Z,14.07
2018-12-15T06:09:45.146Z,16.20
2018-12-15T06:12:14.248Z,15.23
2018-12-15T06:14:42.990Z,13.00
2018-12-15T06:17:11.746Z,12.57
2018-12-15T06:19:40.474Z,11.63
2018-12-15T06:22:09.198Z,11.87
2018-12-15T06:24:37.918Z,9.90
2018-12-15T06:27:06.757Z,9.87
2018-12-15T06:29:35.361Z,10.13
2018-12-15T06:32:04.905Z,8.80
2018-12-15T06:34:33.458Z,8.97
2018-12-15T06:37:02.041Z,9.67
2018-12-15T06:39:30.705Z,9.07
2018-12-15T06:41:59.317Z,9.20
2018-12-15T06:44:27.942Z,9.37
2018-12-15T06:46:56.666Z,9.40
2018-12-15T06:49:25.325Z,8.83
2018-12-15T06:51:53.973Z,9.30
2018-12-15T06:54:22.702Z,8.40
2018-12-15T06:56:51.285Z,9.97
2018-12-15T06:59:19.943Z,9.58
2018-12-15T07:01:48.620Z,10.03
2018-12-15T07:04:17.645Z,10.77
2018-12-15T07:06:46.286Z,11.03
2018-12-15T07:09:14.934Z,10.70
2018-12-15T07:11:44.364Z,10.60
2018-12-15T07:14:13.060Z,10.63
2018-12-15T07:16:42.056Z,11.83
2018-12-15T07:19:10.701Z,12.60
2018-12-15T07:21:39.529Z,13.47
2018-12-15T07:24:08.176Z,14.23
2018-12-15T07:26:36.800Z,14.07
2018-12-15T07:29:05.560Z,13.27
2018-12-15T07:31:34.580Z,12.33
2018-12-15T07:34:03.228Z,13.00
2018-12-15T07:36:32.176Z,13.70
2018-12-15T07:39:00.885Z,13.77
2018-12-15T07:41:29.540Z,14.73
2018-12-15T07:43:58.552Z,12.87
2018-12-15T07:46:27.360Z,12.73
2018-12-15T07:48:55.977Z,12.07
2018-12-15T07:51:24.652Z,12.67
2018-12-15T07:53:53.260Z,13.63
2018-12-15T07:56:26.308Z,12.33
2018-12-15T07:58:56.217Z,13.13
2018-12-15T08:01:25.433Z,12.17
2018-12-15T08:03:54.096Z,11.70
2018-12-15T08:06:22.705Z,13.13
2018-12-15T08:08:51.351Z,11.87
2018-12-15T08:11:25.231Z,10.90
2018-12-15T08:13:58.220Z,12.13
2018-12-15T08:16:27.034Z,13.00
2018-12-15T08:18:58.190Z,12.47
2018-12-15T08:21:24.588Z,12.73
2018-12-15T08:23:56.664Z,12.13
2018-12-15T08:26:25.519Z,11.53
2018-12-15T08:28:59.425Z,12.43
2018-12-15T08:31:28.459Z,15.50
2018-12-15T08:33:57.232Z,13.93
2018-12-15T08:36:26.327Z,13.83
2018-12-15T08:38:55.096Z,12.87
2018-12-15T08:41:23.924Z,10.93
2018-12-15T08:43:52.643Z,12.33
2018-12-15T08:46:21.715Z,11.70
2018-12-15T08:48:51.928Z,11.27
2018-12-15T08:51:20.872Z,12.37
2018-12-15T08:53:49.782Z,11.90
2018-12-15T08:56:18.903Z,14.03
2018-12-15T08:58:48.919Z,14.00
2018-12-15T09:04:03.526Z,13.77
2018-12-15T09:06:32.614Z,13.83
2018-12-15T09:09:01.542Z,14.17
2018-12-15T09:11:30.417Z,14.10
2018-12-15T09:13:59.038Z,14.03
2018-12-15T09:16:27.627Z,11.60
2018-12-15T09:18:56.489Z,11.57
2018-12-15T09:21:25.073Z,10.70
2018-12-15T09:23:53.781Z,10.60
2018-12-15T09:26:22.441Z,10.80
2018-12-15T09:28:51.153Z,9.90
2018-12-15T09:31:19.917Z,9.23
2018-12-15T09:33:48.689Z,10.40
2018-12-15T09:36:18.568Z,9.83
2018-12-15T09:38:47.383Z,10.83
2018-12-15T09:41:16.128Z,11.57
2018-12-15T09:43:44.897Z,14.77
2018-12-15T09:46:23.173Z,13.60
2018-12-15T09:48:51.912Z,12.57
2018-12-15T09:51:21.553Z,13.63
2018-12-15T09:53:50.736Z,13.20
2018-12-15T09:56:19.816Z,11.30
2018-12-15T09:58:48.609Z,11.80
2018-12-15T10:01:18.804Z,11.00
2018-12-15T10:03:46.644Z,10.07
2018-12-15T10:06:15.346Z,10.58
2018-12-15T10:08:44.064Z,10.87
2018-12-15T10:11:12.804Z,9.43
2018-12-15T10:13:41.884Z,11.07
2018-12-15T10:16:10.432Z,11.10
2018-12-15T10:18:39.228Z,10.63
2018-12-15T10:21:12.496Z,10.23
2018-12-15T10:23:41.284Z,10.70
2018-12-15T10:26:10.072Z,9.87
2018-12-15T10:28:38.877Z,11.93
2018-12-15T10:31:12.805Z,12.50
2018-12-15T10:33:41.879Z,12.80
2018-12-15T10:36:10.655Z,12.82
2018-12-15T10:38:39.371Z,12.97
2018-12-15T10:41:08.463Z,14.33
2018-12-15T10:43:37.207Z,12.40
2018-12-15T10:46:06.394Z,12.93
2018-12-15T10:48:35.475Z,12.53
2018-12-15T10:51:05.239Z,12.10
2018-12-15T10:53:34.008Z,13.67
2018-12-15T10:56:02.898Z,14.60
2018-12-15T10:58:31.854Z,13.67
2018-12-15T11:01:04.968Z,13.77
2018-12-15T11:03:33.942Z,14.53
2018-12-15T11:06:03.051Z,13.20
2018-12-15T11:08:34.861Z,15.80
2018-12-15T11:11:05.526Z,14.60
2018-12-15T11:13:34.567Z,13.73
2018-12-15T11:16:04.395Z,15.13
2018-12-15T11:19:09.695Z,15.10
2018-12-15T11:21:39.975Z,12.33
2018-12-15T11:24:08.942Z,13.30
2018-12-15T11:26:38.712Z,13.53
2018-12-15T11:29:32.959Z,16.20
2018-12-15T11:32:01.859Z,17.13
2018-12-15T11:34:32.023Z,18.07
2018-12-15T11:37:01.394Z,17.50
2018-12-15T11:39:45.223Z,15.70
2018-12-15T11:55:18.418Z,14.90
2018-12-15T11:58:02.998Z,12.07
2018-12-15T12:13:37.042Z,16.20
2018-12-15T12:24:08.439Z,16.33
2018-12-15T13:03:54.583Z,14.43
2018-12-15T13:06:24.320Z,15.03
2018-12-15T13:09:03.948Z,13.90
2018-12-15T17:01:31.102Z,16.20
2018-12-15T17:19:39.182Z,16.20
2018-12-15T17:22:08.001Z,17.00
2018-12-15T17:24:36.984Z,14.67
2018-12-15T17:27:06.349Z,17.00
2018-12-15T17:29:35.036Z,17.00
2018-12-15T17:32:10.367Z,16.97
2018-12-15T17:34:39.183Z,17.20
2018-12-15T17:37:07.764Z,16.20
2018-12-15T17:39:36.529Z,15.17
2018-12-15T17:42:05.192Z,15.37
2018-12-15T17:44:33.788Z,16.50
2018-12-15T17:47:02.552Z,16.77
2018-12-15T17:49:31.224Z,16.03
2018-12-15T17:54:54.008Z,15.57
2018-12-15T17:57:22.832Z,18.55
2018-12-15T17:59:51.548Z,16.93
2018-12-15T18:02:20.292Z,16.40
2018-12-15T18:04:49.078Z,15.97
2018-12-15T18:07:17.804Z,16.00
2018-12-15T18:09:46.520Z,16.50
2018-12-15T18:12:15.384Z,16.10
2018-12-15T18:14:43.988Z,17.33
2018-12-15T18:17:12.525Z,17.60
2018-12-15T18:19:41.540Z,17.47
2018-12-15T18:22:10.608Z,17.00
2018-12-15T18:24:39.752Z,17.33
2018-12-15T18:27:08.606Z,16.23
2018-12-15T18:29:38.412Z,14.43
2018-12-15T18:32:07.788Z,15.83
2018-12-15T18:34:48.851Z,15.33
2018-12-15T18:37:34.892Z,16.62
2018-12-15T18:40:26.332Z,17.63
2018-12-15T18:42:57.673Z,18.90
2018-12-15T18:45:26.627Z,20.43
2018-12-15T18:48:28.863Z,19.03
2018-12-15T19:29:08.671Z,13.30
2018-12-15T20:32:01.582Z,13.60
2018-12-15T20:37:57.849Z,12.93
2018-12-15T20:40:26.921Z,13.87
